Clayton, NM

2:20 AM MST on February 25, 2017 (GMT -0700)
Clayton Municipal | | Change Station
Active Advisory: Fire Weather Watch

Elev 4964 ft 36.45 °N, 103.15 °W | Updated 25 minutes ago

Clear
Clear
16 °F
Feels Like 10 °F
N
4
Wind Variable Wind from SW

Today
High -- | Low -- °F
--% Chance of Precip.
Yesterday
High -- | Low -- °F
Precip. -- in
Pressure 30.17 in
Visibility 10.0 miles
Clouds Clear
Windchill 10 °F
Dew Point 11 °F
Humidity 81%
Rainfall 0.00 in
Snow Depth Not available.
6:28 AM 5:43 PM
Waning Crescent, 2% visible
METAR KCAO 250855Z AUTO 23003KT 10SM CLR M09/M12 A3009 RMK AO2 SLP214 T10891117 58002
Pressure 30.17 in
Visibility 10.0 miles
Clouds Clear
Windchill 10 °F
Dew Point 11 °F
Humidity 81%
Rainfall 0.00 in
Snow Depth Not available.
6:28 AM 5:43 PM
Waning Crescent, 2% visible
METAR KCAO 250855Z AUTO 23003KT 10SM CLR M09/M12 A3009 RMK AO2 SLP214 T10891117 58002

Get Your Daily Forecast Email!

Thanks for signing up!

Be on the lookout for a verification email in your inbox.

You'll start receiving the daily forecast at 8 AM.

×

10-Day Weather Forecast

Almanac

Astronomy

Feb. 25, 2017 Rise Set
Actual Time
Civil Twilight
Nautical Twilight
Astronomical Twilight
Moon
Length of Visible Light
Length of Day
Tomorrow will be .
, % of the Moon is Illuminated

Today's Extremes

State Highs State Lows

Community

WunderPhotos

Upload Photos

1,962,540 photos uploaded!

WunderBlog® & News

Nearby

Air Quality

  Air Quality AQ Index Pollutant
Not available.

Snow Depth

Station Depth Elevation

Earthquake Activity

City Distance Mag. Time & Date
Minimum magnitude displayed is 2.5.

Coastal Water Temperatures

Place Temperature

Stations

Nearby Weather Stations

Station Location Temp. Windchill Dew Point Humidity Wind Precip. Elev Updated Type
                   

Watches & Warnings

Fire Weather Watch
Issued: 5:48 PM MST Feb. 24, 2017 – National Weather Service

... Fire Weather Watch remains in effect Saturday afternoon...

* area and timing... northeast plains south of Highway 56, during
the afternoon hours on Saturday.

* 20 foot winds... southwest 20 to 30 mph with gusts to 40 mph.

* Relative humidity... minimum values 9 to 15 percent.

* Impacts... any fires that develop will likely spread rapidly.
Outdoor burning is not recommended.

Precautionary/preparedness actions...

Please advise the appropriate officials or fire crews in the
field of this Fire Weather Watch.